Darien, Connecticut
Current Conditions -  °F | °C
As of 11:56 PM on Wednesday 26 Nov 2014 (Local Time) from KHPN Reporting Station
Overcast Overcast  
Wind Chill: 22°   Ceiling: 6500
Heat Index: 33°   Visibility: 9mi
Dew Point: 29°   Wind: 20mph
Humidity: 85%   Direction: 340°NNW
Pressure: 29.78"   Gusts: NA
Location:  41.07°N, 73.48°W
Report Text: KHPN 270456Z 34017KT 9SM OVC065 01/M02 A2978 RMK AO2 SNE22 SLP093 P0000 T00061017 400830006
Loading
Personal Weather Stations






























Interactive Weather Map New forecast layout! Learn more

10-Day Weather Forecast

Advertisements
Track Severe Weather on mobile